• Join FlightAware (Why Join?)
  • Login
  • US Flag 
02:22AM EDT


 

Airport Tracker/Info


-or-


 

Live Flight TrackerFlight Track Log ✈ DAL1061 ✈ 01-Jul-2012 ✈ KLAX - KMCO

Flight Track Log - Related Links

Times and Time Zones

All times are in EDT time to prevent confusion due to time zone crossing. See the DAL1061 flight status page for this flight to view local times or setup timezone preferences in your user account.

Time Position Orientation Groundspeed Altitude Reporting Facility
EDT Latitude Longitude Course Direction KTS MPH feet Rate Location/Type
01:26PM 33.9211 -118.4689 156° South 217 250 2,000  Level Los Angeles Center
01:31PM 33.6419 -118.3200 90° East 354 407 14,000 2,100 Climbing Los Angeles Center
01:32PM 33.6425 -118.1794 89° East 385 443 15,300 1,200 Climbing Los Angeles Center
01:33PM 33.6442 -118.0525 90° East 422 486 16,600 1,680 Climbing Los Angeles Center
01:34PM 33.6433 -117.8736 90° East 438 504 18,800 1,920 Climbing Los Angeles Center
01:35PM 33.6431 -117.7214 90° East 447 514 20,600 1,500 Climbing Los Angeles Center
01:36PM 33.6436 -117.5661 91° East 456 525 22,000 1,200 Climbing Los Angeles Center
01:37PM 33.6419 -117.4047 91° East 472 543 23,200 1,200 Climbing Los Angeles Center
01:38PM 33.6397 -117.2417 90° East 480 552 24,500 1,140 Climbing Los Angeles Center
01:39PM 33.6386 -117.0733 90° East 490 564 25,600 1,020 Climbing Los Angeles Center
01:40PM 33.6375 -116.9033 91° East 499 574 26,700 1,200 Climbing Los Angeles Center
01:41PM 33.6353 -116.7281 91° East 505 581 28,100 1,560 Climbing Los Angeles Center
01:42PM 33.6333 -116.5286 91° East 500 575 30,000 1,620 Climbing Los Angeles Center
01:43PM 33.6319 -116.3633 91° East 495 570 31,500 1,200 Climbing Los Angeles Center
01:44PM 33.6289 -116.2017 83° East 489 563 32,600 1,080 Climbing Los Angeles Center
01:45PM 33.6439 -116.0447 80° East 478 550 33,800 960 Climbing Los Angeles Center
01:46PM 33.6658 -115.8872 80° East 478 550 34,700 540 Climbing Los Angeles Center
01:47PM 33.6897 -115.7283 81° East 481 554 35,000 120 Climbing Los Angeles Center
01:48PM 33.7139 -115.5364 81° East 484 557 35,000 -60 Level Los Angeles Center
01:50PM 33.7361 -115.3758 80° East 486 559 34,900 -60 Descending Los Angeles Center
01:51PM 33.7586 -115.2161 81° East 485 558 34,900  Level Los Angeles Center
01:52PM 33.7806 -115.0572 81° East 483 556 35,000  Climbing Los Angeles Center
01:53PM 33.8017 -114.8989 81° East 481 554 35,000 -60 Level Los Angeles Center
01:54PM 33.8256 -114.7089 81° East 480 552 34,900  Descending Los Angeles Center
01:55PM 33.8461 -114.5511 81° East 478 550 35,000  Climbing Los Angeles Center
01:56PM 33.8669 -114.3947 81° East 476 548 35,000 -60 Level Los Angeles Center
01:57PM 33.8878 -114.2375 81° East 476 548 34,900 -60 Descending Los Angeles Center
01:58PM 33.9117 -114.0481 82° East 477 549 34,900  Level Los Angeles Center
01:59PM 33.9311 -113.8881 81° East 483 556 35,000  Climbing Los Angeles Center
02:00PM 33.9556 -113.6975 82° East 482 555 35,000  Level Albuquerque Center
02:01PM 33.9750 -113.5350 82° East 483 556 35,000  Level Albuquerque Center
02:02PM 33.9950 -113.3722 82° East 484 557 35,000  Level Albuquerque Center
02:03PM 34.0139 -113.2117 82° East 480 552 35,000  Level Albuquerque Center
02:04PM 34.0322 -113.0478 82° East 483 556 35,000  Level Albuquerque Center
02:05PM 34.0550 -112.8519 82° East 484 557 35,000  Level Albuquerque Center
02:06PM 34.0733 -112.6906 82° East 482 555 35,000  Level Albuquerque Center
02:07PM 34.0922 -112.5303 82° East 477 549 35,000  Level Albuquerque Center
02:08PM 34.1103 -112.3692 83° East 476 548 35,000  Level Albuquerque Center
02:10PM 34.1269 -112.2078 82° East 477 549 35,000  Level Albuquerque Center
02:11PM 34.1450 -112.0453 83° East 478 550 35,000  Level Albuquerque Center
02:12PM 34.1642 -111.8647 83° East 478 550 35,000  Level Albuquerque Center
02:13PM 34.1819 -111.6936 83° East 478 550 35,000  Level Albuquerque Center
02:14PM 34.1969 -111.5531 83° East 477 549 35,000  Level Albuquerque Center
02:15PM 34.2139 -111.3906 83° East 478 550 35,000  Level Albuquerque Center
02:16PM 34.2308 -111.2281 83° East 478 550 35,000  Level Albuquerque Center
02:17PM 34.2469 -111.0667 83° East 477 549 35,000  Level Albuquerque Center
02:18PM 34.2661 -110.8714 83° East 479 551 35,000  Level Albuquerque Center
02:19PM 34.2819 -110.7100 83° East 478 550 35,000  Level Albuquerque Center
02:20PM 34.2983 -110.5486 83° East 477 549 35,000  Level Albuquerque Center
02:21PM 34.3133 -110.3883 84° East 476 548 35,000  Level Albuquerque Center
02:22PM 34.3297 -110.2117 84° East 475 547 35,000  Level Albuquerque Center
02:23PM 34.3436 -110.0586 84° East 476 548 35,000  Level Albuquerque Center
02:24PM 34.3600 -109.8828 84° East 474 545 35,000  Level Albuquerque Center
02:25PM 34.3739 -109.7308 84° East 474 545 35,000  Level Albuquerque Center
02:26PM 34.3889 -109.5556 84° East 472 543 35,000  Level Albuquerque Center
02:27PM 34.4019 -109.4058 84° East 470 541 35,000  Level Albuquerque Center
02:28PM 34.4178 -109.2297 87° East 471 542 35,000  Level Albuquerque Center
02:29PM 34.4233 -109.0792 90° East 473 544 35,000  Level Albuquerque Center
02:30PM 34.4239 -108.9025 90° East 475 547 35,000  Level Albuquerque Center
02:31PM 34.4233 -108.7508 90° East 472 543 35,000  Level Albuquerque Center
02:32PM 34.4219 -108.5731 90° East 473 544 35,000  Level Albuquerque Center
02:33PM 34.4208 -108.4236 91° East 472 543 35,000  Level Albuquerque Center
02:34PM 34.4192 -108.2647 91° East 472 543 35,000  Level Albuquerque Center
02:35PM 34.4178 -108.1064 91° East 472 543 35,000  Level Albuquerque Center
02:37PM 34.4150 -107.9172 90° East 470 541 35,000  Level Albuquerque Center
02:38PM 34.4139 -107.7581 91° East 472 543 35,000  Level Albuquerque Center
02:39PM 34.4108 -107.5997 91° East 473 544 35,000  Level Albuquerque Center
02:40PM 34.4075 -107.4419 90° East 472 543 35,000  Level Albuquerque Center
02:41PM 34.4064 -107.2864 92° East 469 540 35,000  Level Albuquerque Center
02:42PM 34.4019 -107.1003 92° East 465 535 35,000  Level Albuquerque Center
02:43PM 34.3981 -106.9447 92° East 465 535 35,000  Level Albuquerque Center
02:44PM 34.3944 -106.7875 92° East 469 540 35,000  Level Albuquerque Center
02:45PM 34.3906 -106.6286 91° East 473 544 35,000  Level Albuquerque Center
02:46PM 34.3875 -106.4711 92° East 473 544 35,000  Level Albuquerque Center
02:47PM 34.3831 -106.2808 92° East 474 545 35,000  Level Albuquerque Center
02:48PM 34.3778 -106.1353 92° East 469 540 35,000  Level Albuquerque Center
02:49PM 34.3739 -105.9764 92° East 468 539 35,000  Level Albuquerque Center
02:50PM 34.3689 -105.7919 93° East 468 539 35,000  Level Albuquerque Center
02:51PM 34.3625 -105.6319 94° East 471 542 35,000  Level Albuquerque Center
02:52PM 34.3525 -105.4742 95° East 469 540 35,000  Level Albuquerque Center
02:53PM 34.3414 -105.3156 95° East 468 539 35,000  Level Albuquerque Center
02:54PM 34.3300 -105.1578 95° East 469 540 35,000  Level Albuquerque Center
02:55PM 34.3194 -105.0008 95° East 467 537 35,000  Level Albuquerque Center
02:56PM 34.3067 -104.8194 95° East 464 534 35,000  Level Albuquerque Center
02:57PM 34.2961 -104.6644 95° East 462 532 35,000  Level Albuquerque Center
02:58PM 34.2847 -104.5081 95° East 463 533 35,000  Level Albuquerque Center
02:59PM 34.2722 -104.3514 95° East 465 535 35,000  Level Albuquerque Center
03:00PM 34.2606 -104.1950 95° East 465 535 35,000  Level Albuquerque Center
03:01PM 34.2483 -104.0369 95° East 469 540 35,000  Level Albuquerque Center
03:02PM 34.2336 -103.8525 95° East 470 541 35,000  Level Albuquerque Center
03:03PM 34.2214 -103.6964 96° East 468 539 35,000  Level Albuquerque Center
03:04PM 34.2083 -103.5350 95° East 464 534 35,000  Level Albuquerque Center
03:06PM 34.1958 -103.3772 96° East 465 535 35,000  Level Albuquerque Center
03:07PM 34.1828 -103.2200 96° East 466 536 35,000  Level Albuquerque Center
03:08PM 34.1694 -103.0650 96° East 463 533 35,000  Level Albuquerque Center
03:09PM 34.1553 -102.9103 96° East 461 531 35,000  Level Albuquerque Center
03:10PM 34.1425 -102.7542 97° East 461 531 35,000  Level Albuquerque Center
03:11PM 34.1269 -102.6017 96° East 458 527 35,000  Level Albuquerque Center
03:12PM 34.1103 -102.4236 96° East 455 524 35,000  Level Albuquerque Center
03:13PM 34.0961 -102.2675 96° East 458 527 35,000  Level Albuquerque Center
03:14PM 34.0814 -102.1114 96° East 461 531 35,000  Level Albuquerque Center
03:15PM 34.0631 -101.9136 96° East 464 534 35,000  Level Fort Worth Center
03:16PM 34.0497 -101.7600 97° East 464 534 35,000  Level Fort Worth Center
03:17PM 34.0325 -101.5914 97° East 464 534 35,000  Level Fort Worth Center
03:18PM 34.0167 -101.4425 97° East 462 532 35,000  Level Fort Worth Center
03:19PM 34.0008 -101.2842 97° East 467 537 35,000  Level Fort Worth Center
03:20PM 33.9844 -101.1331 98° East 467 537 35,000  Level Fort Worth Center
03:21PM 33.9694 -101.0022 96° East 461 531 35,000  Level Fort Worth Center
03:22PM 33.9550 -100.8464 98° East 461 531 35,000  Level Fort Worth Center
03:23PM 33.9367 -100.6806 97° East 461 531 35,000  Level Fort Worth Center
03:24PM 33.9217 -100.5247 98° East 461 531 35,000  Level Fort Worth Center
03:25PM 33.9047 -100.3714 97° East 466 536 35,000  Level Fort Worth Center
03:26PM 33.8892 -100.2233 98° East 460 529 35,000  Level Fort Worth Center
03:27PM 33.8717 -100.0703 98° East 454 522 35,000  Level Fort Worth Center
03:28PM 33.8539 -99.9194 98° East 454 522 35,000  Level Fort Worth Center
03:29PM 33.8361 -99.7664 97° East 454 522 35,000  Level Fort Worth Center
03:30PM 33.8200 -99.6161 98° East 459 528 35,000  Level Fort Worth Center
03:31PM 33.8017 -99.4631 98° East 459 528 35,000  Level Fort Worth Center
03:32PM 33.7833 -99.3128 98° East 459 528 35,000  Level Fort Worth Center
03:33PM 33.7667 -99.1625 100° East 459 528 35,000  Level Fort Worth Center
03:34PM 33.7456 -99.0172 100° East 448 516 35,000  Level Fort Worth Center
03:35PM 33.7244 -98.8669 97° East 448 516 35,000  Level Fort Worth Center
03:36PM 33.7114 -98.7344 98° East 453 521 35,000  Level Fort Worth Center
03:37PM 33.6942 -98.5869 99° East 448 516 35,000 180 Level Fort Worth Center
03:38PM 33.6744 -98.4367 99° East 448 516 35,400 600 Climbing Fort Worth Center
03:39PM 33.6547 -98.2844 99° East 455 524 36,300 780 Climbing Fort Worth Center
03:40PM 33.6350 -98.1294 98° East 455 524 37,000 300 Climbing Fort Worth Center
03:41PM 33.6150 -97.9622 99° East 464 534 37,000  Level Fort Worth Center
03:42PM 33.5947 -97.8075 98° East 464 534 37,000  Level Fort Worth Center
03:43PM 33.5761 -97.6528 99° East 464 534 37,000  Level Fort Worth Center
03:44PM 33.5556 -97.4958 99° East 472 543 37,000  Level Fort Worth Center
03:45PM 33.5347 -97.3386 99° East 472 543 37,000  Level Fort Worth Center
03:46PM 33.5136 -97.1817 99° East 472 543 37,000  Level Fort Worth Center
03:47PM 33.4925 -97.0250 99° East 477 549 37,000  Level Fort Worth Center
03:48PM 33.4731 -96.8806 99° East 482 555 37,000  Level Fort Worth Center
03:49PM 33.4514 -96.7239 99° East 490 564 37,000  Level Fort Worth Center
03:50PM 33.4297 -96.5647 101° East 483 556 37,000  Level Fort Worth Center
03:51PM 33.4056 -96.4106 100° East 483 556 37,000  Level Fort Worth Center
03:52PM 33.3833 -96.2542 100° East 477 549 37,000  Level Fort Worth Center
03:53PM 33.3586 -96.0853 101° East 477 549 37,000  Level Fort Worth Center
03:54PM 33.3339 -95.9317 99° East 477 549 37,000  Level Fort Worth Center
03:55PM 33.3133 -95.7753 100° East 477 549 37,000  Level Fort Worth Center
03:56PM 33.2903 -95.6217 103° East 472 543 37,000  Level Fort Worth Center
03:57PM 33.2611 -95.4733 98° East 466 536 37,000  Level Fort Worth Center
03:58PM 33.2417 -95.3172 101° East 466 536 37,000  Level Fort Worth Center
03:59PM 33.2186 -95.1786 101° East 472 543 37,000  Level Fort Worth Center
04:00PM 33.1950 -95.0278 101° East 472 543 37,000  Level Fort Worth Center
04:01PM 33.1711 -94.8747 100° East 467 537 37,000  Level Fort Worth Center
04:02PM 33.1492 -94.7239 113° Southeast 467 537 37,000  Level Fort Worth Center
04:03PM 33.0978 -94.5792 114° Southeast 467 537 37,000  Level Fort Worth Center
04:04PM 33.0444 -94.4372 114° Southeast 472 543 37,000  Level Fort Worth Center
04:05PM 32.9911 -94.2953 114° Southeast 472 543 37,000  Level Fort Worth Center
04:06PM 32.9372 -94.1486 113° Southeast 477 549 37,000  Level Fort Worth Center
04:07PM 32.8853 -94.0044 115° Southeast 477 549 37,000  Level Fort Worth Center
04:08PM 32.8292 -93.8583 109° East 477 549 37,000  Level Fort Worth Center
04:09PM 32.7872 -93.7117 99° East 472 543 37,000  Level Fort Worth Center
04:10PM 32.7661 -93.5594 99° East 467 537 37,000  Level Fort Worth Center
04:11PM 32.7444 -93.4000 100° East 473 544 37,000  Level Fort Worth Center
04:12PM 32.7225 -93.2453 100° East 478 550 37,000  Level Fort Worth Center
04:13PM 32.6986 -93.0886 100° East 478 550 37,000  Level Fort Worth Center
04:14PM 32.6744 -92.9342 99° East 484 557 37,000  Level Fort Worth Center
04:15PM 32.6542 -92.7772 101° East 484 557 37,000  Level Fort Worth Center
04:16PM 32.6294 -92.6233 101° East 484 557 37,000  Level Fort Worth Center
04:17PM 32.6047 -92.4692 101° East 484 557 37,000  Level Fort Worth Center
04:18PM 32.5800 -92.3228 101° East 471 542 37,000  Level Fort Worth Center
04:19PM 32.5528 -92.1642 100° East 471 542 37,000  Level Fort Worth Center
04:20PM 32.5294 -92.0078 102° East 478 550 37,000  Level Fort Worth Center
04:22PM 32.4806 -91.7389 101° East 465 535 37,000  Level Memphis Center
04:23PM 32.4553 -91.5808 101° East 476 548 37,000  Level Memphis Center
04:24PM 32.4294 -91.4306 101° East 470 541 37,000  Level Memphis Center
04:25PM 32.4033 -91.2775 100° East 470 541 37,100 360 Climbing Memphis Center
04:26PM 32.3794 -91.1247 102° East 470 541 37,800 780 Climbing Memphis Center
04:27PM 32.3531 -90.9744 102° East 470 541 38,700 600 Climbing Memphis Center
04:28PM 32.3267 -90.8244 102° East 470 541 39,000 120 Climbing Memphis Center
04:29PM 32.3000 -90.6719 101° East 470 541 39,000  Level Memphis Center
04:30PM 32.2753 -90.5219 102° East 470 541 39,000  Level Memphis Center
04:31PM 32.2481 -90.3719 102° East 470 541 39,000  Level Memphis Center
04:32PM 32.2231 -90.2272 102° East 470 541 39,000  Level Memphis Center
04:33PM 32.1978 -90.0922 101° East 470 541 39,000  Level Memphis Center
04:34PM 32.1722 -89.9425 102° East 470 541 39,000  Level Memphis Center
04:35PM 32.1467 -89.7981 102° East 465 535 39,000  Level Memphis Center
04:36PM 32.1186 -89.6486 102° East 465 535 39,000  Level Memphis Center
04:37PM 32.0928 -89.5017 102° East 459 528 39,000  Level Memphis Center
04:38PM 32.0667 -89.3572 103° East 459 528 39,000  Level Memphis Center
04:39PM 32.0381 -89.2081 102° East 454 522 39,000  Level Memphis Center
04:40PM 32.0117 -89.0661 102° East 449 517 39,000  Level Memphis Center
04:41PM 31.9850 -88.9172 103° East 449 517 39,000  Level Memphis Center
04:43PM 31.9353 -88.6664 103° East 446 513 39,000  Level Atlanta Center
04:44PM 31.9072 -88.5231 102° East 441 507 39,000  Level Atlanta Center
04:45PM 31.8814 -88.3750 103° East 447 514 39,000  Level Atlanta Center
04:46PM 31.8531 -88.2294 103° East 452 520 39,000  Level Atlanta Center
04:47PM 31.8244 -88.0814 103° East 452 520 39,000  Level Atlanta Center
04:48PM 31.7956 -87.9386 103° East 452 520 39,000  Level Atlanta Center
04:49PM 31.7669 -87.7908 102° East 452 520 39,000  Level Atlanta Center
04:50PM 31.7400 -87.6431 103° East 452 520 39,000  Level Atlanta Center
04:51PM 31.6881 -87.3869 106° East 451 519 39,000  Level Jacksonville Center
04:52PM 31.6569 -87.2611 103° East 451 519 39,000  Level Jacksonville Center
04:53PM 31.6283 -87.1183 104° East 456 525 39,000  Level Jacksonville Center
04:54PM 31.5978 -86.9756 103° East 456 525 39,000  Level Jacksonville Center
04:55PM 31.5689 -86.8303 104° East 456 525 39,000  Level Jacksonville Center
04:56PM 31.5378 -86.6853 104° East 457 526 39,000  Level Jacksonville Center
04:57PM 31.5067 -86.5403 104° East 452 520 39,000  Level Jacksonville Center
04:58PM 31.4733 -86.3831 104° East 452 520 39,000  Level Jacksonville Center
04:59PM 31.4417 -86.2383 103° East 452 520 39,000  Level Jacksonville Center
05:00PM 31.4122 -86.0936 105° East 457 526 39,000  Level Jacksonville Center
05:01PM 31.3781 -85.9489 104° East 452 520 39,000  Level Jacksonville Center
05:02PM 31.3481 -85.8044 101° East 452 520 39,000  Level Jacksonville Center
05:03PM 31.3258 -85.6747 104° East 452 520 39,000 -60 Level Jacksonville Center
05:04PM 31.2936 -85.5281 104° East 452 520 38,900  Descending Jacksonville Center
05:05PM 31.2631 -85.3836 104° East 452 520 39,000  Climbing Jacksonville Center
05:06PM 31.2325 -85.2394 107° East 452 520 38,900  Descending Jacksonville Center
05:07PM 31.1953 -85.0953 105° East 457 526 39,000 -180 Climbing Jacksonville Center
05:08PM 31.1622 -84.9539 104° East 457 526 38,600 -660 Descending Jacksonville Center
05:09PM 31.1311 -84.8122 104° East 457 526 37,700 -840 Descending Jacksonville Center
05:10PM 31.0997 -84.6661 124° Southeast 457 526 37,000 -360 Descending Jacksonville Center
05:11PM 31.0283 -84.5411 162° South 457 526 37,000  Level Jacksonville Center
05:12PM 30.9100 -84.4956 152° Southeast 421 484 37,000  Level Jacksonville Center
05:13PM 30.8000 -84.4283 116° Southeast 421 484 37,000 -180 Level Jacksonville Center
05:14PM 30.7433 -84.2919 115° Southeast 431 496 36,700 -600 Descending Jacksonville Center
05:15PM 30.6883 -84.1558 115° Southeast 449 517 35,800 -900 Descending Jacksonville Center
05:16PM 30.6311 -84.0153 115° Southeast 460 529 34,900 -960 Descending Jacksonville Center
05:17PM 30.5758 -83.8769 115° Southeast 465 535 33,900 -1,500 Descending Jacksonville Center
05:18PM 30.5225 -83.7439 117° Southeast 465 535 31,900 -1,800 Descending Jacksonville Center
05:19PM 30.4628 -83.6058 116° Southeast 465 535 30,300 -1,320 Descending Jacksonville Center
05:20PM 30.4050 -83.4658 116° Southeast 470 541 29,300 -1,020 Descending Jacksonville Center
05:21PM 30.3472 -83.3258 116° Southeast 470 541 28,300 -1,020 Descending Jacksonville Center
05:22PM 30.2892 -83.1908 115° Southeast 470 541 27,300 -840 Descending Jacksonville Center
05:23PM 30.2331 -83.0536 116° Southeast 470 541 26,700 -720 Descending Jacksonville Center
05:24PM 30.1767 -82.9214 117° Southeast 465 535 25,900 -900 Descending Jacksonville Center
05:25PM 30.1203 -82.7917 116° Southeast 465 535 24,900 -480 Descending Jacksonville Center
05:26PM 30.0658 -82.6644 117° Southeast 454 522 25,000  Climbing Jacksonville Center
05:27PM 30.0092 -82.5353 131° Southeast 448 516 25,000 -60 Level Jacksonville Center
05:28PM 29.9317 -82.4325 156° South 448 516 24,900 -60 Descending Jacksonville Center
05:29PM 29.8144 -82.3731 158° South 432 497 24,900 -360 Level Jacksonville Center
05:30PM 29.6953 -82.3189 158° South 446 513 24,200 -780 Descending Jacksonville Center
05:31PM 29.5803 -82.2644 157° South 451 519 23,400 -960 Descending Jacksonville Center
05:32PM 29.4672 -82.2081 158° South 451 519 22,300 -1,680 Descending Jacksonville Center
05:33PM 29.3583 -82.1586 156° South 441 507 20,100 -2,280 Descending Jacksonville Center
05:34PM 29.2558 -82.1072 159° South 422 486 17,800 -2,400 Descending Jacksonville Center
05:35PM 29.1447 -82.0581 156° South 408 470 15,400 -2,340 Descending Jacksonville Center
05:36PM 29.0483 -82.0089 158° South 397 457 13,200 -2,100 Descending Jacksonville Center
05:37PM 28.9564 -81.9669 153° Southeast 377 434 11,300 -1,200 Descending Jacksonville Center
05:38PM 28.8789 -81.9228 123° Southeast 352 405 10,900 -900 Descending Jacksonville Center
05:39PM 28.8344 -81.8450 123° Southeast 290 334 9,600 -1,140 Descending Jacksonville Center
05:40PM 28.8000 -81.7833 106° East 287 330 9,000 -420 Descending Orlando TRACON
05:41PM 28.7833 -81.7167 120° Southeast 256 295 9,000  Level Orlando TRACON
05:42PM 28.7500 -81.6500 106° East 240 276 9,000 -600 Level Orlando TRACON
05:43PM 28.7333 -81.5833 106° East 240 276 7,800 -1,140 Descending Orlando TRACON
05:44PM 28.7167 -81.5167 103° East 241 277 6,900 -960 Descending Orlando TRACON
05:45PM 28.7000 -81.4333 139° Southeast 237 273 6,000 -960 Descending Orlando TRACON
05:46PM 28.6500 -81.3833 127° Southeast 235 270 5,000 -900 Descending Orlando TRACON
05:47PM 28.6167 -81.3333 127° Southeast 209 241 4,300 -960 Descending Orlando TRACON
05:48PM 28.5833 -81.2833 180° South 193 222 3,000 -1,260 Descending Orlando TRACON
05:49PM 28.5333 -81.2833 180° South 184 212 1,700 -1,080 Descending Orlando TRACON
05:50PM 28.4833 -81.2833 192° South 158 182 800 -840 Descending Orlando TRACON
05:58PM 28.4167 -81.3000 328° Northwest  Level FlightAware Approximate
05:59PM 28.5149 -81.3694 148° Southeast  Level Estimated
06:00PM 28.4167 -81.3000 148° Southeast  Level FlightAware Approximate